createdAt,value
2019-01-29T00:00:29.564Z,0.70
2019-01-29T00:02:58.610Z,0.70
2019-01-29T00:05:27.646Z,0.70
2019-01-29T00:07:56.658Z,0.70
2019-01-29T00:10:25.506Z,0.70
2019-01-29T00:12:54.355Z,0.70
2019-01-29T00:15:23.376Z,0.70
2019-01-29T00:17:52.296Z,0.70
2019-01-29T00:20:21.123Z,0.70
2019-01-29T00:22:49.994Z,0.70
2019-01-29T00:25:18.950Z,0.70
2019-01-29T00:27:47.971Z,0.70
2019-01-29T00:30:17.006Z,0.80
2019-01-29T00:32:45.978Z,0.80
2019-01-29T00:35:15.118Z,0.80
2019-01-29T00:37:44.046Z,0.80
2019-01-29T00:40:13.174Z,0.80
2019-01-29T00:42:42.077Z,0.80
2019-01-29T00:45:11.338Z,0.80
2019-01-29T00:47:40.173Z,0.80
2019-01-29T00:50:09.707Z,0.80
2019-01-29T00:52:42.160Z,0.90
2019-01-29T00:55:10.543Z,0.90
2019-01-29T00:57:39.434Z,0.90
2019-01-29T01:00:15.211Z,0.90
2019-01-29T01:02:44.155Z,0.90
2019-01-29T01:05:14.452Z,0.90
2019-01-29T01:07:43.377Z,0.90
2019-01-29T01:10:14.519Z,1.00
2019-01-29T01:12:43.424Z,1.00
2019-01-29T01:15:12.624Z,1.00
2019-01-29T01:17:41.630Z,1.00
2019-01-29T01:20:13.206Z,1.00
2019-01-29T01:22:50.406Z,1.00
2019-01-29T01:25:13.800Z,1.00
2019-01-29T01:27:42.654Z,1.00
2019-01-29T01:30:14.211Z,1.00
2019-01-29T01:32:43.298Z,1.00
2019-01-29T01:35:12.511Z,1.10
2019-01-29T01:37:41.417Z,1.00
2019-01-29T01:40:14.238Z,1.00
2019-01-29T01:42:43.251Z,1.10
2019-01-29T01:45:12.538Z,1.10
2019-01-29T01:47:41.463Z,1.10
2019-01-29T01:50:11.179Z,1.10
2019-01-29T01:52:40.289Z,1.10
2019-01-29T01:55:11.547Z,1.10
2019-01-29T01:57:40.503Z,1.00
2019-01-29T02:00:13.003Z,1.00
2019-01-29T02:02:41.894Z,1.00
2019-01-29T02:05:10.900Z,1.00
2019-01-29T02:07:39.994Z,1.00
2019-01-29T02:10:13.334Z,1.00
2019-01-29T02:12:42.222Z,1.00
2019-01-29T02:15:11.491Z,0.90
2019-01-29T02:17:40.375Z,0.90
2019-01-29T02:20:10.310Z,0.90
2019-01-29T02:22:39.319Z,0.90
2019-01-29T02:25:08.395Z,0.90
2019-01-29T02:27:37.254Z,0.90
2019-01-29T02:30:09.485Z,0.90
2019-01-29T02:32:38.397Z,0.90
2019-01-29T02:35:07.415Z,0.90
2019-01-29T02:37:36.312Z,0.90
2019-01-29T02:40:08.035Z,0.90
2019-01-29T02:42:36.897Z,0.90
2019-01-29T02:45:07.619Z,0.90
2019-01-29T02:47:36.466Z,0.90
2019-01-29T02:50:06.111Z,0.90
2019-01-29T02:52:34.979Z,0.90
2019-01-29T02:55:04.395Z,0.90
2019-01-29T02:57:33.274Z,0.90
2019-01-29T03:00:02.143Z,0.90
2019-01-29T03:02:30.954Z,0.80
2019-01-29T03:04:59.803Z,0.80
2019-01-29T03:07:28.698Z,0.80
2019-01-29T03:09:57.542Z,0.80
2019-01-29T03:12:26.462Z,0.80
2019-01-29T03:14:55.360Z,0.80
2019-01-29T03:17:24.246Z,0.80
2019-01-29T03:19:53.188Z,0.70
2019-01-29T03:22:22.078Z,0.70
2019-01-29T03:24:50.982Z,0.70
2019-01-29T03:27:19.799Z,0.60
2019-01-29T03:29:48.694Z,0.60
2019-01-29T03:32:17.616Z,0.60
2019-01-29T03:34:46.446Z,0.60
2019-01-29T03:37:15.413Z,0.60
2019-01-29T03:39:44.442Z,0.60
2019-01-29T03:42:13.312Z,0.60
2019-01-29T03:44:42.171Z,0.60
2019-01-29T03:47:11.068Z,0.60
2019-01-29T03:49:39.961Z,0.60
2019-01-29T03:52:08.995Z,0.60
2019-01-29T03:54:37.894Z,0.60
2019-01-29T03:57:06.807Z,0.60
2019-01-29T03:59:35.638Z,0.60
2019-01-29T04:02:04.663Z,0.50
2019-01-29T04:04:33.500Z,0.50
2019-01-29T04:07:02.352Z,0.50
2019-01-29T04:09:31.356Z,0.50
2019-01-29T04:12:00.215Z,0.50
2019-01-29T04:14:29.283Z,0.50
2019-01-29T04:16:58.255Z,0.60
2019-01-29T04:19:28.831Z,0.60
2019-01-29T04:21:57.714Z,0.60
2019-01-29T04:24:26.560Z,0.60
2019-01-29T04:26:55.407Z,0.60
2019-01-29T04:29:24.298Z,0.60
2019-01-29T04:31:53.152Z,0.60
2019-01-29T04:34:22.084Z,0.70
2019-01-29T04:36:50.947Z,0.70
2019-01-29T04:39:19.776Z,0.60
2019-01-29T04:41:48.674Z,0.70
2019-01-29T04:44:17.549Z,0.70
2019-01-29T04:46:46.448Z,0.60
2019-01-29T04:49:15.503Z,0.60
2019-01-29T04:51:44.315Z,0.60
2019-01-29T04:54:13.186Z,0.60
2019-01-29T04:56:42.179Z,0.60
2019-01-29T04:59:11.226Z,0.60
2019-01-29T05:01:40.176Z,0.60
2019-01-29T05:04:09.082Z,0.60
2019-01-29T05:06:37.878Z,0.60
2019-01-29T05:09:08.876Z,0.60
2019-01-29T05:11:37.767Z,0.50
2019-01-29T05:14:07.018Z,0.60
2019-01-29T05:16:35.867Z,0.60
2019-01-29T05:19:05.083Z,0.50
2019-01-29T05:21:33.962Z,0.60
2019-01-29T05:24:06.887Z,0.50
2019-01-29T05:26:33.493Z,0.50
2019-01-29T05:29:02.426Z,0.60
2019-01-29T05:31:31.281Z,0.60
2019-01-29T05:34:00.328Z,0.60
2019-01-29T05:36:29.225Z,0.60
2019-01-29T05:38:58.090Z,0.60
2019-01-29T05:41:26.967Z,0.60
2019-01-29T05:43:55.821Z,0.60
2019-01-29T05:46:25.251Z,0.60
2019-01-29T05:48:54.184Z,0.70
2019-01-29T05:51:23.018Z,0.70
2019-01-29T05:53:51.948Z,0.70
2019-01-29T05:56:20.765Z,0.80
2019-01-29T05:58:49.601Z,0.80
2019-01-29T06:01:18.612Z,0.80
2019-01-29T06:03:47.452Z,0.80
2019-01-29T06:06:16.407Z,0.80
2019-01-29T06:08:45.235Z,0.80
2019-01-29T06:11:14.189Z,0.80
2019-01-29T06:13:43.092Z,0.80
2019-01-29T06:16:12.001Z,0.80
2019-01-29T06:18:40.843Z,0.70
2019-01-29T06:21:09.769Z,0.70
2019-01-29T06:23:38.607Z,0.70
2019-01-29T06:26:07.536Z,0.60
2019-01-29T06:28:36.473Z,0.60
2019-01-29T06:31:05.474Z,0.60
2019-01-29T06:33:34.412Z,0.60
2019-01-29T06:36:03.356Z,0.50
2019-01-29T06:38:32.271Z,0.50
2019-01-29T06:41:01.201Z,0.50
2019-01-29T06:43:30.134Z,0.50
2019-01-29T06:45:58.963Z,0.50
2019-01-29T06:48:27.817Z,0.50
2019-01-29T06:50:56.794Z,0.50
2019-01-29T06:53:25.692Z,0.50
2019-01-29T06:55:54.518Z,0.50
2019-01-29T06:58:23.351Z,0.50
2019-01-29T07:00:52.178Z,0.40
2019-01-29T07:03:21.183Z,0.50
2019-01-29T07:05:50.063Z,0.40
2019-01-29T07:08:18.948Z,0.50
2019-01-29T07:10:47.834Z,0.50
2019-01-29T07:13:16.675Z,0.50
2019-01-29T07:16:16.498Z,0.50
2019-01-29T07:18:56.261Z,0.50
2019-01-29T07:21:25.291Z,0.60
2019-01-29T07:23:54.206Z,0.60
2019-01-29T07:26:23.080Z,0.60
2019-01-29T07:28:51.931Z,0.60
2019-01-29T07:31:20.978Z,0.60
2019-01-29T07:33:49.774Z,0.60
2019-01-29T07:36:18.707Z,0.70
2019-01-29T07:38:47.619Z,0.70
2019-01-29T07:41:16.518Z,0.70
2019-01-29T07:43:45.461Z,0.70
2019-01-29T07:46:14.474Z,0.70
2019-01-29T07:48:43.450Z,0.70
2019-01-29T07:51:12.450Z,0.70
2019-01-29T07:53:41.359Z,0.60
2019-01-29T07:56:10.317Z,0.60
2019-01-29T07:58:39.212Z,0.60
2019-01-29T08:01:08.126Z,0.60
2019-01-29T08:03:38.154Z,0.60
2019-01-29T08:06:07.455Z,0.60
2019-01-29T08:08:36.342Z,0.60
2019-01-29T08:11:05.350Z,0.60
2019-01-29T08:13:34.328Z,0.70
2019-01-29T08:16:03.321Z,0.70
2019-01-29T08:18:32.178Z,0.70
2019-01-29T08:21:01.175Z,0.70
2019-01-29T08:23:30.147Z,0.70
2019-01-29T08:25:58.963Z,0.70
2019-01-29T08:28:27.862Z,0.80
2019-01-29T08:30:56.734Z,0.80
2019-01-29T08:33:25.586Z,0.80
2019-01-29T08:35:54.557Z,0.80
2019-01-29T08:38:23.481Z,0.90
2019-01-29T08:40:52.322Z,0.90
2019-01-29T08:43:21.196Z,0.90
2019-01-29T08:45:50.037Z,1.00
2019-01-29T08:48:18.958Z,1.00
2019-01-29T08:50:47.818Z,1.10
2019-01-29T08:53:16.769Z,1.10
2019-01-29T08:55:45.747Z,1.10
2019-01-29T08:58:14.606Z,1.20
2019-01-29T09:00:43.497Z,1.30
2019-01-29T09:03:12.490Z,1.40
2019-01-29T09:05:41.422Z,1.40
2019-01-29T09:08:10.418Z,1.40
2019-01-29T09:10:39.410Z,1.70
2019-01-29T09:13:08.327Z,1.80
2019-01-29T09:15:37.218Z,1.70
2019-01-29T09:18:06.203Z,1.50
2019-01-29T09:20:35.118Z,1.50
2019-01-29T09:23:04.015Z,1.50
2019-01-29T09:25:32.860Z,1.50
2019-01-29T09:28:01.673Z,1.50
2019-01-29T09:30:30.543Z,1.50
2019-01-29T09:32:59.479Z,1.60
2019-01-29T09:35:28.433Z,1.60
2019-01-29T09:37:57.279Z,1.60
2019-01-29T09:40:26.307Z,1.50
2019-01-29T09:42:55.298Z,1.60
2019-01-29T09:45:27.078Z,1.60
2019-01-29T09:47:55.994Z,1.70
2019-01-29T09:50:25.299Z,1.90
2019-01-29T09:52:54.346Z,1.90
2019-01-29T09:55:28.937Z,1.80
2019-01-29T09:57:54.076Z,1.90
2019-01-29T10:00:34.186Z,2.00
2019-01-29T10:03:03.091Z,2.50
2019-01-29T10:05:32.094Z,3.00
2019-01-29T10:08:01.059Z,3.70
2019-01-29T10:10:30.059Z,4.30
2019-01-29T10:12:58.977Z,4.70
2019-01-29T10:15:32.002Z,4.90
2019-01-29T10:18:01.008Z,5.30
2019-01-29T10:20:30.131Z,5.60
2019-01-29T10:22:59.166Z,5.00
2019-01-29T10:25:28.110Z,4.60
2019-01-29T10:27:57.119Z,3.80
2019-01-29T10:30:26.251Z,3.20
2019-01-29T10:32:55.450Z,3.00
2019-01-29T10:35:24.733Z,2.70
2019-01-29T10:37:53.713Z,2.40
2019-01-29T10:40:23.526Z,2.20
2019-01-29T10:42:54.550Z,2.10
2019-01-29T10:45:24.710Z,2.00
2019-01-29T10:47:53.663Z,2.00
2019-01-29T10:50:24.254Z,1.90
2019-01-29T10:52:53.478Z,2.00
2019-01-29T10:55:22.466Z,2.00
2019-01-29T10:57:51.569Z,2.00
2019-01-29T11:00:23.458Z,2.10
2019-01-29T11:02:52.455Z,2.00
2019-01-29T11:05:21.640Z,2.10
2019-01-29T11:07:50.629Z,2.10
2019-01-29T11:10:19.657Z,2.20
2019-01-29T11:12:48.504Z,2.20
2019-01-29T11:15:25.995Z,2.20
2019-01-29T11:17:54.981Z,2.30
2019-01-29T11:20:24.266Z,2.30
2019-01-29T11:22:53.180Z,2.20
2019-01-29T11:25:23.826Z,2.20
2019-01-29T11:27:52.754Z,2.20
2019-01-29T11:30:24.214Z,2.20
2019-01-29T11:32:53.448Z,2.20
2019-01-29T11:35:22.390Z,2.10
2019-01-29T11:37:51.265Z,2.10
2019-01-29T11:40:22.073Z,2.20
2019-01-29T11:42:51.083Z,2.10
2019-01-29T11:45:25.866Z,2.30
2019-01-29T11:47:54.777Z,2.50
2019-01-29T11:50:23.810Z,2.40
2019-01-29T11:52:52.906Z,2.30
2019-01-29T11:55:21.838Z,2.40
2019-01-29T11:57:50.845Z,2.30
2019-01-29T12:00:27.807Z,2.30
2019-01-29T12:02:56.806Z,2.30
2019-01-29T12:05:25.654Z,2.30
2019-01-29T12:07:54.539Z,2.20
2019-01-29T12:10:23.561Z,2.20
2019-01-29T12:12:52.576Z,2.30
2019-01-29T12:15:21.757Z,2.20
2019-01-29T12:17:50.741Z,2.20
2019-01-29T12:20:19.951Z,2.10
2019-01-29T12:22:48.903Z,2.20
2019-01-29T12:25:17.890Z,2.20
2019-01-29T12:27:46.857Z,2.30
2019-01-29T12:30:18.536Z,2.40
2019-01-29T12:32:47.712Z,2.40
2019-01-29T12:35:16.744Z,2.50
2019-01-29T12:37:45.623Z,2.60
2019-01-29T12:40:15.241Z,2.60
2019-01-29T12:42:44.216Z,2.70
2019-01-29T12:45:13.225Z,2.70
2019-01-29T12:47:43.335Z,2.60
2019-01-29T12:50:19.907Z,2.60
2019-01-29T12:53:00.269Z,2.60
2019-01-29T12:55:31.470Z,2.80
2019-01-29T12:58:02.438Z,2.80
2019-01-29T13:00:37.966Z,2.80
2019-01-29T13:03:07.246Z,2.90
2019-01-29T13:05:36.227Z,2.90
2019-01-29T13:08:05.612Z,3.00
2019-01-29T13:10:34.610Z,3.10
2019-01-29T13:13:03.754Z,3.10
2019-01-29T13:15:32.976Z,3.10
2019-01-29T13:18:01.940Z,3.20
2019-01-29T13:20:30.938Z,3.20
2019-01-29T13:22:59.965Z,3.20
2019-01-29T13:25:28.892Z,3.10
2019-01-29T13:27:57.710Z,3.00
2019-01-29T13:30:31.420Z,3.20
2019-01-29T13:33:00.419Z,3.30
2019-01-29T13:35:31.628Z,3.40
2019-01-29T13:38:00.450Z,3.50
2019-01-29T13:40:29.491Z,3.40
2019-01-29T13:42:58.392Z,3.20
2019-01-29T13:45:27.680Z,3.20
2019-01-29T13:47:56.658Z,3.20
2019-01-29T13:50:32.757Z,3.30
2019-01-29T13:53:01.632Z,3.40
2019-01-29T13:55:30.651Z,3.40
2019-01-29T13:57:59.610Z,3.40
2019-01-29T14:00:30.580Z,3.50
2019-01-29T14:02:59.651Z,3.60
2019-01-29T14:05:28.462Z,3.60
2019-01-29T14:07:57.420Z,3.70
2019-01-29T14:10:26.367Z,3.60
2019-01-29T14:12:55.325Z,3.60
2019-01-29T14:15:32.006Z,3.60
2019-01-29T14:18:00.954Z,3.50
2019-01-29T14:20:29.820Z,3.50
2019-01-29T14:22:58.622Z,3.40
2019-01-29T14:25:27.600Z,3.30
2019-01-29T14:27:56.471Z,3.10
2019-01-29T14:30:25.407Z,3.10
2019-01-29T14:32:54.382Z,3.10
2019-01-29T14:35:23.355Z,3.10
2019-01-29T14:38:43.593Z,3.10
2019-01-29T14:41:12.791Z,3.10
2019-01-29T14:43:46.608Z,3.10
2019-01-29T14:46:15.424Z,3.10
2019-01-29T14:48:44.251Z,3.10
2019-01-29T14:51:13.225Z,3.10
2019-01-29T14:53:42.262Z,3.00
2019-01-29T14:56:11.093Z,3.00
2019-01-29T14:58:39.941Z,2.90
2019-01-29T15:01:08.960Z,2.80
2019-01-29T15:03:38.006Z,2.80
2019-01-29T15:06:07.595Z,2.80
2019-01-29T15:08:36.654Z,2.70
2019-01-29T15:11:05.758Z,2.60
2019-01-29T15:13:34.633Z,2.50
2019-01-29T15:16:22.615Z,2.50
2019-01-29T15:18:55.966Z,2.40
2019-01-29T15:21:24.853Z,2.40
2019-01-29T15:23:53.837Z,2.20
2019-01-29T15:26:22.675Z,2.10
2019-01-29T15:28:51.558Z,2.00
2019-01-29T15:31:20.424Z,2.00
2019-01-29T15:39:03.970Z,1.80
2019-01-29T15:44:42.809Z,1.70
2019-01-29T15:46:05.391Z,1.60
2019-01-29T15:52:31.266Z,1.50
2019-01-29T15:58:53.791Z,0.80
2019-01-29T16:01:22.658Z,1.10
2019-01-29T16:03:51.595Z,1.10
2019-01-29T16:06:20.579Z,1.00
2019-01-29T16:08:49.546Z,1.00
2019-01-29T16:11:18.463Z,0.90
2019-01-29T16:13:47.355Z,0.90
2019-01-29T16:16:16.241Z,0.80
2019-01-29T16:18:45.239Z,0.70
2019-01-29T16:21:14.295Z,0.70
2019-01-29T16:23:43.166Z,0.70
2019-01-29T16:26:13.866Z,0.60
2019-01-29T16:28:44.546Z,0.60
2019-01-29T16:31:13.699Z,0.50
2019-01-29T16:33:42.687Z,0.50
2019-01-29T16:36:11.626Z,0.50
2019-01-29T16:38:40.484Z,0.50
2019-01-29T16:41:09.414Z,0.40
2019-01-29T16:43:38.379Z,0.40
2019-01-29T16:46:07.366Z,0.30
2019-01-29T16:48:36.388Z,0.20
2019-01-29T16:51:05.284Z,0.20
2019-01-29T16:53:34.989Z,0.20
2019-01-29T16:56:05.930Z,0.20
2019-01-29T16:58:35.026Z,0.20
2019-01-29T17:01:04.297Z,0.20
2019-01-29T17:03:33.235Z,0.20
2019-01-29T17:06:02.187Z,0.20
2019-01-29T17:08:31.043Z,0.10
2019-01-29T17:11:00.090Z,0.10
2019-01-29T17:13:28.958Z,0.10
2019-01-29T17:15:57.867Z,0.10
2019-01-29T17:18:26.810Z,0.10
2019-01-29T17:20:55.662Z,0.10
2019-01-29T17:23:24.595Z,0.00
2019-01-29T17:25:53.549Z,0.00
2019-01-29T17:28:22.386Z,0.00
2019-01-29T17:30:52.060Z,0.00
2019-01-29T17:33:21.160Z,0.00
2019-01-29T17:35:50.201Z,0.00
2019-01-29T17:38:19.267Z,-0.10
2019-01-29T17:40:48.469Z,0.00
2019-01-29T17:43:17.550Z,0.00
2019-01-29T17:45:48.107Z,0.00
2019-01-29T17:48:17.103Z,-0.10
2019-01-29T17:50:46.691Z,-0.10
2019-01-29T17:53:16.770Z,0.00
2019-01-29T17:55:47.660Z,-0.10
2019-01-29T17:58:16.834Z,-0.10
2019-01-29T18:00:49.697Z,-0.10
2019-01-29T18:03:18.939Z,-0.20
2019-01-29T18:05:48.135Z,-0.20
2019-01-29T18:08:18.784Z,-0.20
2019-01-29T18:10:48.358Z,-0.30
2019-01-29T18:13:17.406Z,-0.20
2019-01-29T18:15:46.493Z,-0.20
2019-01-29T18:18:15.687Z,-0.20
2019-01-29T18:20:44.806Z,-0.20
2019-01-29T18:23:13.931Z,-0.20
2019-01-29T18:25:43.991Z,-0.20
2019-01-29T18:28:13.193Z,-0.10
2019-01-29T18:30:43.971Z,-0.10
2019-01-29T18:33:15.045Z,-0.10
2019-01-29T18:35:44.230Z,-0.10
2019-01-29T18:38:13.272Z,-0.10
2019-01-29T18:40:46.478Z,-0.10
2019-01-29T18:43:15.427Z,-0.10
2019-01-29T18:45:44.354Z,-0.10
2019-01-29T18:48:13.390Z,-0.10
2019-01-29T18:50:42.198Z,-0.10
2019-01-29T18:53:11.186Z,-0.10
2019-01-29T18:55:40.104Z,-0.10
2019-01-29T18:58:11.978Z,-0.10
2019-01-29T19:00:39.875Z,-0.20
2019-01-29T19:03:22.808Z,-0.20
2019-01-29T19:14:04.706Z,-0.30
2019-01-29T19:16:36.653Z,-0.30
2019-01-29T19:19:05.682Z,-0.40
2019-01-29T19:21:34.480Z,-0.40
2019-01-29T19:24:03.387Z,-0.50
2019-01-29T19:26:32.873Z,-0.50
2019-01-29T19:29:01.715Z,-0.50
2019-01-29T19:31:30.623Z,-0.50
2019-01-29T19:33:59.450Z,-0.50
2019-01-29T19:36:28.330Z,-0.40
2019-01-29T19:38:57.206Z,-0.50
2019-01-29T19:41:26.080Z,-0.50
2019-01-29T19:43:54.953Z,-0.40
2019-01-29T19:46:23.777Z,-0.30
2019-01-29T19:48:52.765Z,-0.20
2019-01-29T19:51:21.577Z,-0.20
2019-01-29T19:53:50.494Z,-0.20
2019-01-29T19:56:19.362Z,-0.20
2019-01-29T19:58:48.182Z,-0.10
2019-01-29T20:01:17.266Z,-0.10
2019-01-29T20:03:46.154Z,-0.20
2019-01-29T20:06:14.989Z,-0.20
2019-01-29T20:08:43.870Z,-0.30
2019-01-29T20:11:13.000Z,-0.30
2019-01-29T20:13:41.851Z,-0.30
2019-01-29T20:16:10.718Z,-0.30
2019-01-29T20:18:39.691Z,-0.30
2019-01-29T20:21:08.671Z,-0.30
2019-01-29T20:23:37.670Z,-0.30
2019-01-29T20:26:06.575Z,-0.40
2019-01-29T20:28:42.230Z,-0.40
2019-01-29T20:31:06.142Z,-0.50
2019-01-29T20:33:34.959Z,-0.60
2019-01-29T20:36:04.024Z,-0.60
2019-01-29T20:38:35.291Z,-0.60
2019-01-29T20:41:03.583Z,-0.60
2019-01-29T20:43:32.490Z,-0.70
2019-01-29T20:46:02.858Z,-0.70
2019-01-29T20:48:32.233Z,-0.70
2019-01-29T20:51:03.244Z,-0.70
2019-01-29T20:53:33.910Z,-0.70
2019-01-29T20:56:04.710Z,-0.70
2019-01-29T20:58:35.316Z,-0.70
2019-01-29T21:01:07.118Z,-0.70
2019-01-29T21:03:37.765Z,-0.80
2019-01-29T21:06:06.828Z,-0.70
2019-01-29T21:08:35.706Z,-0.70
2019-01-29T21:11:05.063Z,-0.80
2019-01-29T21:13:34.050Z,-0.80
2019-01-29T21:16:02.921Z,-0.80
2019-01-29T21:18:31.890Z,-0.90
2019-01-29T21:21:00.951Z,-0.80
2019-01-29T21:23:30.023Z,-0.90
2019-01-29T21:25:58.917Z,-0.90
2019-01-29T21:28:27.814Z,-0.90
2019-01-29T21:30:56.778Z,-1.00
2019-01-29T21:33:25.689Z,-1.00
2019-01-29T21:35:54.626Z,-1.00
2019-01-29T21:38:23.594Z,-1.00
2019-01-29T21:40:52.517Z,-1.10
2019-01-29T21:43:21.413Z,-1.00
2019-01-29T21:45:50.290Z,-1.00
2019-01-29T21:48:19.162Z,-1.10
2019-01-29T21:50:48.114Z,-1.10
2019-01-29T21:53:16.909Z,-1.00
2019-01-29T21:55:45.693Z,-1.00
2019-01-29T21:58:14.537Z,-1.10
2019-01-29T22:00:44.981Z,-1.10
2019-01-29T22:03:14.530Z,-1.10
2019-01-29T22:05:43.542Z,-1.10
2019-01-29T22:08:12.717Z,-1.10
2019-01-29T22:10:42.034Z,-1.10
2019-01-29T22:13:12.249Z,-1.10
2019-01-29T22:15:41.389Z,-1.10
2019-01-29T22:18:14.185Z,-1.10
2019-01-29T22:20:43.066Z,-1.10
2019-01-29T22:23:11.930Z,-1.20
2019-01-29T22:25:40.887Z,-1.20
2019-01-29T22:28:10.897Z,-1.20
2019-01-29T22:30:41.169Z,-1.20
2019-01-29T22:33:10.026Z,-1.20
2019-01-29T22:35:38.977Z,-1.20
2019-01-29T22:38:07.914Z,-1.20
2019-01-29T22:40:36.874Z,-1.20
2019-01-29T22:43:06.101Z,-1.30
2019-01-29T22:45:34.898Z,-1.20
2019-01-29T22:48:04.656Z,-1.30
2019-01-29T22:50:35.465Z,-1.20
2019-01-29T22:53:04.427Z,-1.30
2019-01-29T22:55:33.293Z,-1.30
2019-01-29T22:58:02.166Z,-1.30
2019-01-29T23:00:58.673Z,-1.30
2019-01-29T23:03:30.158Z,-1.30
2019-01-29T23:06:09.489Z,-1.30
2019-01-29T23:08:38.281Z,-1.30
2019-01-29T23:11:07.211Z,-1.30
2019-01-29T23:13:36.087Z,-1.30
2019-01-29T23:16:05.356Z,-1.30
2019-01-29T23:18:34.238Z,-1.30
2019-01-29T23:21:03.098Z,-1.30
2019-01-29T23:23:32.001Z,-1.40
2019-01-29T23:26:00.794Z,-1.30
2019-01-29T23:28:29.677Z,-1.40
2019-01-29T23:30:58.598Z,-1.40
2019-01-29T23:33:27.522Z,-1.30
2019-01-29T23:35:56.305Z,-1.40
2019-01-29T23:38:25.113Z,-1.30
2019-01-29T23:40:54.058Z,-1.20
2019-01-29T23:43:22.895Z,-1.10
2019-01-29T23:45:51.764Z,-1.10
2019-01-29T23:48:20.716Z,-1.10
2019-01-29T23:50:49.502Z,-1.10
2019-01-29T23:53:18.493Z,-1.00
2019-01-29T23:55:47.241Z,-1.10
2019-01-29T23:58:16.026Z,-1.10
